Time;durP1;ratioP1;P1;durP2;ratioP2;P2;SDS_P1;SDS_P2;PMS_P1;PMS_P2;Temp;Humidity;BMP_temperature;BMP_pressure;BME280_temperature;BME280_humidity;BME280_pressure;Samples;Min_cycle;Max_cycle;Signal;HPM_P1;HPM_P2
2022/10/09 00:03:15;;;;;;;8.17;2.03;;;16.20;99.90;;;;;;7573193;76;27505;-56
2022/10/09 00:13:18;;;;;;;7.70;2.30;;;16.30;99.90;;;;;;7621817;76;26752;-56
2022/10/09 00:23:21;;;;;;;9.60;2.20;;;16.20;99.90;;;;;;7587953;76;26804;-55
2022/10/09 00:33:23;;;;;;;6.93;2.57;;;16.20;99.90;;;;;;7595262;76;26298;-53
2022/10/09 00:43:47;;;;;;;7.93;2.50;;;16.10;99.90;;;;;;7579337;76;26784;-55
2022/10/09 00:53:49;;;;;;;11.90;2.70;;;16.10;99.90;;;;;;7575951;76;27032;-55
2022/10/09 01:03:52;;;;;;;8.90;1.63;;;16.10;99.90;;;;;;7589044;76;26267;-56
2022/10/09 01:14:09;;;;;;;5.50;2.00;;;16.00;99.90;;;;;;7615420;77;26278;-53
2022/10/09 01:24:33;;;;;;;7.07;2.70;;;16.00;99.90;;;;;;7596578;76;26326;-56
2022/10/09 01:34:38;;;;;;;5.07;1.97;;;16.00;99.90;;;;;;7572546;76;26290;-55
2022/10/09 01:44:41;;;;;;;6.23;2.50;;;15.90;99.90;;;;;;7605999;76;26271;-56
2022/10/09 01:54:55;;;;;;;10.40;3.20;;;15.90;99.90;;;;;;7592229;76;26333;-55
2022/10/09 02:04:58;;;;;;;9.73;3.17;;;15.80;99.90;;;;;;7611865;76;26754;-58
2022/10/09 02:15:01;;;;;;;6.13;1.90;;;15.90;99.90;;;;;;7579475;76;27053;-54
2022/10/09 02:25:06;;;;;;;3.87;1.53;;;15.80;99.90;;;;;;7610043;76;26314;-55
2022/10/09 02:35:09;;;;;;;6.13;1.93;;;15.80;99.90;;;;;;7582753;76;26302;-56
2022/10/09 02:45:11;;;;;;;7.30;1.93;;;15.70;99.90;;;;;;7587858;76;26263;-54
2022/10/09 02:55:14;;;;;;;7.47;1.83;;;15.70;99.90;;;;;;7614389;76;26723;-58
2022/10/09 03:05:17;;;;;;;4.83;1.77;;;15.70;99.90;;;;;;7614010;76;26314;-57
2022/10/09 03:15:19;;;;;;;5.37;1.90;;;15.60;99.90;;;;;;7587883;76;26278;-55
2022/10/09 03:25:22;;;;;;;16.03;3.37;;;15.60;99.90;;;;;;7618681;76;26261;-55
2022/10/09 03:35:24;;;;;;;12.03;2.40;;;15.60;99.90;;;;;;7680728;76;27168;-56
2022/10/09 03:45:27;;;;;;;9.20;2.20;;;15.50;99.90;;;;;;7653306;76;26322;-56
2022/10/09 03:55:29;;;;;;;15.00;2.33;;;15.50;99.90;;;;;;7594321;77;26732;-54
2022/10/09 04:05:35;;;;;;;5.70;2.43;;;15.50;99.90;;;;;;7527047;77;26341;-55
2022/10/09 04:15:37;;;;;;;9.23;2.40;;;15.50;99.90;;;;;;7495850;77;26816;-54
2022/10/09 04:25:40;;;;;;;5.80;1.63;;;15.40;99.90;;;;;;7529848;77;26318;-54
2022/10/09 04:35:43;;;;;;;6.53;1.93;;;15.40;99.90;;;;;;7507685;77;26259;-54
2022/10/09 04:45:46;;;;;;;8.40;2.43;;;15.40;99.90;;;;;;7514668;77;26279;-55
2022/10/09 04:55:48;;;;;;;5.20;1.60;;;15.30;99.90;;;;;;7568422;77;26805;-56
2022/10/09 05:05:51;;;;;;;10.60;3.30;;;15.30;99.90;;;;;;7602029;76;26257;-56
2022/10/09 05:15:53;;;;;;;4.00;1.73;;;15.30;99.90;;;;;;7610249;76;26266;-56
2022/10/09 05:25:58;;;;;;;3.17;1.70;;;15.20;99.90;;;;;;7560861;76;26430;-57
2022/10/09 05:36:02;;;;;;;4.83;1.60;;;15.20;99.90;;;;;;7588819;76;26347;-56
2022/10/09 05:46:11;;;;;;;7.63;2.00;;;15.20;99.90;;;;;;7590521;76;26698;-55
2022/10/09 05:56:25;;;;;;;5.40;1.53;;;15.10;99.90;;;;;;7601555;76;26249;-56
2022/10/09 06:06:30;;;;;;;5.27;1.33;;;15.20;99.90;;;;;;7665157;76;26252;-58
2022/10/09 06:16:36;;;;;;;3.17;1.80;;;15.20;99.90;;;;;;7673028;76;26680;-57
2022/10/09 06:26:38;;;;;;;5.10;2.40;;;15.20;99.90;;;;;;7651032;76;26257;-52
2022/10/09 06:36:41;;;;;;;5.33;2.47;;;15.20;99.90;;;;;;7655047;76;26346;-55
2022/10/09 06:46:44;;;;;;;3.13;1.40;;;15.20;99.90;;;;;;7663682;76;26314;-55
2022/10/09 06:56:47;;;;;;;6.60;1.90;;;15.20;99.90;;;;;;7680896;76;26401;-56
2022/10/09 07:06:49;;;;;;;4.13;1.83;;;15.20;99.90;;;;;;7676580;76;26703;-56
2022/10/09 07:16:52;;;;;;;8.80;2.20;;;15.20;99.90;;;;;;7697074;76;26244;-57
2022/10/09 07:26:56;;;;;;;14.37;2.37;;;15.20;99.90;;;;;;7692538;76;26260;-57
2022/10/09 07:36:58;;;;;;;7.30;2.87;;;15.20;99.90;;;;;;7637107;76;26356;-58
2022/10/09 07:47:01;;;;;;;4.77;2.57;;;15.30;99.90;;;;;;7634195;76;26241;-55
2022/10/09 07:57:03;;;;;;;11.20;2.23;;;15.10;99.90;;;;;;7642062;76;26805;-57
2022/10/09 08:07:06;;;;;;;9.33;2.93;;;15.40;99.90;;;;;;7602866;76;26308;-56
2022/10/09 08:17:09;;;;;;;10.20;2.57;;;15.80;99.90;;;;;;7669273;76;26308;-55
2022/10/09 08:27:11;;;;;;;6.53;2.33;;;16.10;99.90;;;;;;7676345;76;26346;-55
2022/10/09 08:37:14;;;;;;;5.20;3.10;;;16.20;99.90;;;;;;7658912;76;26875;-53
2022/10/09 08:47:25;;;;;;;7.13;4.03;;;16.50;99.90;;;;;;7680997;76;26280;-54
2022/10/09 08:57:31;;;;;;;30.07;17.60;;;16.60;99.90;;;;;;7678684;76;26316;-54
2022/10/09 09:07:42;;;;;;;49.47;28.53;;;16.50;99.90;;;;;;7685065;76;26300;-54
2022/10/09 09:17:54;;;;;;;63.23;39.43;;;16.90;99.90;;;;;;7687828;76;26406;-52
2022/10/09 09:27:59;;;;;;;37.50;23.17;;;17.10;99.90;;;;;;7667828;76;26392;-51
2022/10/09 09:38:02;;;;;;;48.90;28.33;;;17.30;99.90;;;;;;7666411;76;26289;-56
2022/10/09 09:48:07;;;;;;;42.60;25.53;;;17.40;99.90;;;;;;7658600;76;26314;-55
2022/10/09 09:58:16;;;;;;;21.57;12.83;;;17.10;99.90;;;;;;7605124;76;26314;-54
2022/10/09 10:08:33;;;;;;;23.70;13.33;;;16.90;99.90;;;;;;7621293;76;26323;-56
2022/10/09 10:18:42;;;;;;;18.67;10.13;;;16.90;99.90;;;;;;7687632;76;26773;-56
2022/10/09 10:28:53;;;;;;;13.53;7.13;;;16.70;99.90;;;;;;7619595;76;26323;-57
2022/10/09 10:39:01;;;;;;;13.93;5.87;;;16.60;99.90;;;;;;7659522;76;26377;-54
2022/10/09 10:49:06;;;;;;;11.77;5.50;;;16.40;99.90;;;;;;7628733;76;26792;-54
2022/10/09 10:59:38;;;;;;;8.90;3.93;;;16.60;99.90;;;;;;7676162;76;26378;-55
2022/10/09 11:10:00;;;;;;;14.50;4.83;;;16.70;99.90;;;;;;7670620;76;26289;-54
2022/10/09 11:20:09;;;;;;;10.67;3.60;;;16.60;99.90;;;;;;7658354;76;27407;-54
2022/10/09 11:30:14;;;;;;;7.33;2.90;;;16.70;99.90;;;;;;7602949;76;26314;-57
2022/10/09 11:40:20;;;;;;;6.53;2.83;;;16.70;99.90;;;;;;7635050;76;26294;-54
2022/10/09 11:50:34;;;;;;;6.30;2.50;;;16.80;99.90;;;;;;7585891;76;26264;-53
2022/10/09 12:00:37;;;;;;;9.07;2.67;;;16.70;99.90;;;;;;7593432;76;26369;-53
2022/10/09 12:10:42;;;;;;;6.20;2.17;;;16.70;99.90;;;;;;7620854;76;26425;-54
2022/10/09 12:20:48;;;;;;;6.60;2.23;;;16.70;99.90;;;;;;7672164;76;26841;-55
2022/10/09 12:30:52;;;;;;;5.40;2.00;;;16.80;99.90;;;;;;7652705;76;26249;-56
2022/10/09 12:40:57;;;;;;;4.00;1.63;;;16.70;99.90;;;;;;7659170;76;26770;-54
2022/10/09 12:50:59;;;;;;;3.93;1.67;;;16.70;99.90;;;;;;7685214;76;26316;-54
2022/10/09 13:01:13;;;;;;;8.37;1.93;;;16.70;99.90;;;;;;7670604;77;26826;-54
2022/10/09 13:11:34;;;;;;;4.70;1.37;;;16.80;99.90;;;;;;7668775;76;26648;-56
2022/10/09 13:21:36;;;;;;;3.60;1.63;;;16.70;99.90;;;;;;7613961;76;27191;-56
2022/10/09 13:31:44;;;;;;;10.37;2.20;;;16.70;97.80;;;;;;7632641;76;26727;-56
2022/10/09 13:41:54;;;;;;;7.73;2.07;;;16.80;99.90;;;;;;7688798;76;26284;-53
2022/10/09 13:51:54;;;;;;;3.60;1.20;;;16.80;99.90;;;;;;7691677;77;26242;-56
2022/10/09 14:01:56;;;;;;;9.30;2.00;;;16.80;97.80;;;;;;7668250;76;26276;-57
2022/10/09 14:11:59;;;;;;;7.03;1.40;;;16.90;99.90;;;;;;7644026;76;26267;-56
2022/10/09 14:22:01;;;;;;;2.80;1.33;;;16.80;98.50;;;;;;7594599;76;26263;-56
2022/10/09 14:32:05;;;;;;;5.03;1.30;;;16.90;99.90;;;;;;7657040;76;26276;-52
2022/10/09 14:42:08;;;;;;;3.63;1.40;;;16.80;98.10;;;;;;7661408;76;26843;-55
2022/10/09 14:52:10;;;;;;;3.37;1.60;;;16.70;97.90;;;;;;7662933;76;26401;-53
2022/10/09 15:02:15;;;;;;;4.77;1.20;;;16.80;99.60;;;;;;7668199;77;26306;-54
2022/10/09 15:12:17;;;;;;;7.93;2.10;;;16.90;99.90;;;;;;7655505;76;26338;-55
2022/10/09 15:22:20;;;;;;;21.03;7.00;;;16.90;99.90;;;;;;7666503;77;26740;-55
2022/10/09 15:32:24;;;;;;;17.93;6.57;;;16.90;99.90;;;;;;7664139;76;26394;-53
2022/10/09 15:42:26;;;;;;;26.47;8.00;;;16.90;99.90;;;;;;7656297;76;26270;-54
2022/10/09 15:52:29;;;;;;;18.33;5.60;;;16.90;99.90;;;;;;7612635;76;26325;-54
2022/10/09 16:02:31;;;;;;;18.53;5.37;;;16.90;99.90;;;;;;7579143;76;26780;-54
2022/10/09 16:12:34;;;;;;;19.97;4.77;;;16.90;99.90;;;;;;7633780;76;26290;-56
2022/10/09 16:22:36;;;;;;;14.03;4.37;;;16.90;99.90;;;;;;7668206;76;26281;-56
2022/10/09 16:32:39;;;;;;;17.67;4.40;;;16.90;99.90;;;;;;7682949;76;26797;-56
2022/10/09 16:42:42;;;;;;;16.23;4.63;;;16.80;99.90;;;;;;7691471;76;26374;-57
2022/10/09 16:52:44;;;;;;;14.57;4.07;;;16.80;99.90;;;;;;7615316;76;26796;-54
2022/10/09 17:02:46;;;;;;;12.53;4.13;;;16.80;99.90;;;;;;7678817;76;26357;-56
2022/10/09 17:12:49;;;;;;;15.53;4.03;;;16.80;99.90;;;;;;7647360;76;26512;-55
2022/10/09 17:22:52;;;;;;;8.27;3.50;;;16.80;99.90;;;;;;7625528;76;26299;-54
2022/10/09 17:32:54;;;;;;;11.73;3.33;;;16.70;99.90;;;;;;7629435;77;26801;-56
2022/10/09 17:42:56;;;;;;;10.80;4.03;;;16.70;99.90;;;;;;7584771;76;26332;-52
2022/10/09 17:52:59;;;;;;;17.87;3.80;;;16.60;99.90;;;;;;7647814;76;26315;-54
2022/10/09 18:03:02;;;;;;;10.30;4.20;;;16.60;99.90;;;;;;7675819;76;26315;-54
2022/10/09 18:13:06;;;;;;;11.37;4.13;;;16.60;99.90;;;;;;7621054;76;26299;-54
2022/10/09 18:23:09;;;;;;;13.07;4.17;;;16.50;99.90;;;;;;7665248;76;26256;-55
2022/10/09 18:33:12;;;;;;;20.13;4.57;;;16.70;99.90;;;;;;7658915;76;26259;-53
2022/10/09 18:43:14;;;;;;;13.10;3.97;;;16.70;99.90;;;;;;7613398;76;26249;-53
2022/10/09 18:53:17;;;;;;;13.53;3.53;;;16.60;99.90;;;;;;7640713;76;26384;-52
2022/10/09 19:03:19;;;;;;;12.17;3.70;;;16.50;99.90;;;;;;7614098;76;26286;-52
2022/10/09 19:13:22;;;;;;;7.70;4.23;;;16.50;99.90;;;;;;7606641;76;26348;-54
2022/10/09 19:23:24;;;;;;;10.80;3.63;;;16.40;99.90;;;;;;7588455;76;26324;-53
2022/10/09 19:33:27;;;;;;;8.93;3.20;;;16.40;99.90;;;;;;7673285;76;26335;-52
2022/10/09 19:43:30;;;;;;;10.43;4.33;;;16.40;99.90;;;;;;7680337;76;26342;-50
2022/10/09 19:53:33;;;;;;;6.13;3.27;;;16.30;99.90;;;;;;7663447;76;26271;-52
2022/10/09 20:03:36;;;;;;;14.77;4.33;;;16.30;99.90;;;;;;7673868;76;26253;-56
2022/10/09 20:13:40;;;;;;;10.30;3.50;;;16.30;99.90;;;;;;7674481;76;26319;-57
2022/10/09 20:23:46;;;;;;;14.50;3.17;;;16.20;99.90;;;;;;7689525;76;26727;-57
2022/10/09 20:33:48;;;;;;;15.40;6.30;;;16.20;99.90;;;;;;7692378;76;26771;-55
2022/10/09 20:43:52;;;;;;;12.47;4.13;;;16.20;99.90;;;;;;7685535;76;26349;-56
2022/10/09 20:53:57;;;;;;;16.20;4.07;;;16.10;99.90;;;;;;7685219;76;26773;-56
2022/10/09 21:04:00;;;;;;;11.90;3.40;;;16.10;99.90;;;;;;7639130;76;26288;-53
2022/10/09 21:14:03;;;;;;;11.20;3.13;;;16.20;99.90;;;;;;7638191;76;26331;-54
2022/10/09 21:24:05;;;;;;;7.43;2.97;;;16.10;99.90;;;;;;7667598;76;26276;-56
2022/10/09 21:34:08;;;;;;;12.63;3.27;;;16.10;99.90;;;;;;7642542;76;26272;-56
2022/10/09 21:44:11;;;;;;;6.17;3.00;;;15.80;99.90;;;;;;7658294;76;27131;-55
2022/10/09 21:54:13;;;;;;;6.83;2.80;;;16.00;99.90;;;;;;7645258;76;26269;-59
2022/10/09 22:04:16;;;;;;;8.10;2.53;;;16.00;99.90;;;;;;7677387;76;26284;-52
2022/10/09 22:14:18;;;;;;;10.17;2.60;;;16.00;99.90;;;;;;7656624;76;26353;-53
2022/10/09 22:24:21;;;;;;;4.97;2.57;;;16.00;99.90;;;;;;7669668;76;26875;-56
2022/10/09 22:34:23;;;;;;;5.17;2.03;;;16.00;99.90;;;;;;7675935;76;26341;-57
2022/10/09 22:44:26;;;;;;;6.47;2.30;;;16.00;99.90;;;;;;7677903;76;26240;-54
2022/10/09 22:54:28;;;;;;;5.83;1.83;;;16.00;99.90;;;;;;7654628;76;26405;-58
2022/10/09 23:04:31;;;;;;;11.83;2.60;;;16.00;99.90;;;;;;7677607;76;26342;-57
2022/10/09 23:14:33;;;;;;;9.60;2.80;;;16.00;99.90;;;;;;7612564;76;26265;-57
2022/10/09 23:24:36;;;;;;;7.17;2.30;;;16.00;99.90;;;;;;7672268;76;26261;-56
2022/10/09 23:34:38;;;;;;;5.90;2.00;;;16.00;99.90;;;;;;7664352;76;26748;-54
2022/10/09 23:44:41;;;;;;;4.27;2.50;;;15.90;99.90;;;;;;7587977;76;26279;-56
2022/10/09 23:54:43;;;;;;;5.30;2.30;;;15.90;99.90;;;;;;7587082;76;26334;-55
